sensor_id;sensor_type;location;lat;lon;timestamp;P1;durP1;ratioP1;P2;durP2;ratioP2
46288;SDS011;63105;46.158;14.604;2022-09-24T00:01:17;7.85;;;4.20;;
46288;SDS011;63105;46.158;14.604;2022-09-24T00:03:43;6.50;;;3.40;;
46288;SDS011;63105;46.158;14.604;2022-09-24T00:06:09;6.03;;;3.67;;
46288;SDS011;63105;46.158;14.604;2022-09-24T00:08:35;6.95;;;4.25;;
46288;SDS011;63105;46.158;14.604;2022-09-24T00:11:02;6.35;;;3.97;;
46288;SDS011;63105;46.158;14.604;2022-09-24T00:13:28;5.60;;;3.58;;
46288;SDS011;63105;46.158;14.604;2022-09-24T00:15:53;6.15;;;3.63;;
46288;SDS011;63105;46.158;14.604;2022-09-24T00:18:18;6.72;;;4.13;;
46288;SDS011;63105;46.158;14.604;2022-09-24T00:20:45;10.73;;;3.80;;
46288;SDS011;63105;46.158;14.604;2022-09-24T00:23:10;7.00;;;4.00;;
46288;SDS011;63105;46.158;14.604;2022-09-24T00:25:40;8.18;;;4.03;;
46288;SDS011;63105;46.158;14.604;2022-09-24T00:28:24;6.95;;;3.97;;
46288;SDS011;63105;46.158;14.604;2022-09-24T00:30:49;7.63;;;3.72;;
46288;SDS011;63105;46.158;14.604;2022-09-24T00:33:16;6.68;;;3.80;;
46288;SDS011;63105;46.158;14.604;2022-09-24T00:35:41;5.50;;;3.58;;
46288;SDS011;63105;46.158;14.604;2022-09-24T00:38:06;6.10;;;3.50;;
46288;SDS011;63105;46.158;14.604;2022-09-24T00:40:32;7.17;;;3.70;;
46288;SDS011;63105;46.158;14.604;2022-09-24T00:42:58;6.25;;;3.75;;
46288;SDS011;63105;46.158;14.604;2022-09-24T00:45:23;6.57;;;3.80;;
46288;SDS011;63105;46.158;14.604;2022-09-24T00:47:49;6.13;;;3.20;;
46288;SDS011;63105;46.158;14.604;2022-09-24T00:50:20;6.95;;;3.63;;
46288;SDS011;63105;46.158;14.604;2022-09-24T00:52:49;8.13;;;3.67;;
46288;SDS011;63105;46.158;14.604;2022-09-24T00:55:15;5.40;;;3.47;;
46288;SDS011;63105;46.158;14.604;2022-09-24T00:57:43;6.47;;;3.58;;
46288;SDS011;63105;46.158;14.604;2022-09-24T01:00:09;7.22;;;3.42;;
46288;SDS011;63105;46.158;14.604;2022-09-24T01:02:35;5.22;;;3.15;;
46288;SDS011;63105;46.158;14.604;2022-09-24T01:05:01;6.13;;;3.42;;
46288;SDS011;63105;46.158;14.604;2022-09-24T01:07:27;5.97;;;3.38;;
46288;SDS011;63105;46.158;14.604;2022-09-24T01:09:52;7.15;;;3.60;;
46288;SDS011;63105;46.158;14.604;2022-09-24T01:17:33;5.90;;;2.97;;
46288;SDS011;63105;46.158;14.604;2022-09-24T01:22:44;5.90;;;3.00;;
46288;SDS011;63105;46.158;14.604;2022-09-24T01:30:07;4.70;;;3.10;;
46288;SDS011;63105;46.158;14.604;2022-09-24T01:36:03;5.20;;;2.75;;
46288;SDS011;63105;46.158;14.604;2022-09-24T01:38:21;5.70;;;2.97;;
46288;SDS011;63105;46.158;14.604;2022-09-24T01:40:48;5.25;;;2.88;;
46288;SDS011;63105;46.158;14.604;2022-09-24T01:43:15;5.40;;;2.95;;
46288;SDS011;63105;46.158;14.604;2022-09-24T01:45:41;6.50;;;3.28;;
46288;SDS011;63105;46.158;14.604;2022-09-24T01:48:06;5.15;;;2.50;;
46288;SDS011;63105;46.158;14.604;2022-09-24T01:50:34;4.35;;;2.33;;
46288;SDS011;63105;46.158;14.604;2022-09-24T01:53:21;6.18;;;2.53;;
46288;SDS011;63105;46.158;14.604;2022-09-24T01:55:49;4.55;;;2.80;;
46288;SDS011;63105;46.158;14.604;2022-09-24T01:58:17;4.22;;;2.60;;
46288;SDS011;63105;46.158;14.604;2022-09-24T02:00:46;4.28;;;2.45;;
46288;SDS011;63105;46.158;14.604;2022-09-24T02:05:50;4.47;;;2.80;;
46288;SDS011;63105;46.158;14.604;2022-09-24T02:08:20;5.70;;;2.72;;
46288;SDS011;63105;46.158;14.604;2022-09-24T02:13:21;4.75;;;2.70;;
46288;SDS011;63105;46.158;14.604;2022-09-24T02:15:49;4.65;;;2.47;;
46288;SDS011;63105;46.158;14.604;2022-09-24T02:18:16;3.70;;;2.35;;
46288;SDS011;63105;46.158;14.604;2022-09-24T02:20:43;4.97;;;2.88;;
46288;SDS011;63105;46.158;14.604;2022-09-24T02:23:09;3.65;;;2.28;;
46288;SDS011;63105;46.158;14.604;2022-09-24T02:25:50;5.78;;;2.42;;
46288;SDS011;63105;46.158;14.604;2022-09-24T02:28:19;5.22;;;2.67;;
46288;SDS011;63105;46.158;14.604;2022-09-24T02:30:48;6.32;;;2.85;;
46288;SDS011;63105;46.158;14.604;2022-09-24T02:33:15;4.82;;;2.55;;
46288;SDS011;63105;46.158;14.604;2022-09-24T02:36:00;4.15;;;2.25;;
46288;SDS011;63105;46.158;14.604;2022-09-24T02:38:25;4.93;;;2.20;;
46288;SDS011;63105;46.158;14.604;2022-09-24T02:40:50;4.82;;;2.50;;
46288;SDS011;63105;46.158;14.604;2022-09-24T02:43:17;6.95;;;2.60;;
46288;SDS011;63105;46.158;14.604;2022-09-24T02:45:42;5.90;;;2.55;;
46288;SDS011;63105;46.158;14.604;2022-09-24T02:48:07;4.28;;;2.40;;
46288;SDS011;63105;46.158;14.604;2022-09-24T02:50:32;4.38;;;2.63;;
46288;SDS011;63105;46.158;14.604;2022-09-24T02:52:57;5.63;;;2.97;;
46288;SDS011;63105;46.158;14.604;2022-09-24T02:55:23;5.10;;;2.55;;
46288;SDS011;63105;46.158;14.604;2022-09-24T02:57:48;4.00;;;2.28;;
46288;SDS011;63105;46.158;14.604;2022-09-24T03:00:13;4.55;;;2.67;;
46288;SDS011;63105;46.158;14.604;2022-09-24T03:02:38;4.28;;;2.70;;
46288;SDS011;63105;46.158;14.604;2022-09-24T03:05:04;4.07;;;2.40;;
46288;SDS011;63105;46.158;14.604;2022-09-24T03:07:29;5.15;;;2.70;;
46288;SDS011;63105;46.158;14.604;2022-09-24T03:09:54;9.48;;;2.70;;
46288;SDS011;63105;46.158;14.604;2022-09-24T03:12:19;4.20;;;2.50;;
46288;SDS011;63105;46.158;14.604;2022-09-24T03:14:45;4.18;;;2.60;;
46288;SDS011;63105;46.158;14.604;2022-09-24T03:17:10;4.93;;;2.80;;
46288;SDS011;63105;46.158;14.604;2022-09-24T03:19:36;4.35;;;2.50;;
46288;SDS011;63105;46.158;14.604;2022-09-24T03:22:01;4.70;;;2.53;;
46288;SDS011;63105;46.158;14.604;2022-09-24T03:24:26;5.30;;;2.60;;
46288;SDS011;63105;46.158;14.604;2022-09-24T03:26:51;5.17;;;2.43;;
46288;SDS011;63105;46.158;14.604;2022-09-24T03:29:16;4.55;;;2.53;;
46288;SDS011;63105;46.158;14.604;2022-09-24T03:32:02;4.28;;;2.40;;
46288;SDS011;63105;46.158;14.604;2022-09-24T03:34:27;3.67;;;2.23;;
46288;SDS011;63105;46.158;14.604;2022-09-24T03:36:52;5.27;;;2.57;;
46288;SDS011;63105;46.158;14.604;2022-09-24T03:39:17;5.40;;;2.60;;
46288;SDS011;63105;46.158;14.604;2022-09-24T03:41:42;4.77;;;2.50;;
46288;SDS011;63105;46.158;14.604;2022-09-24T03:44:07;4.18;;;2.28;;
46288;SDS011;63105;46.158;14.604;2022-09-24T03:46:33;5.90;;;2.40;;
46288;SDS011;63105;46.158;14.604;2022-09-24T03:48:58;5.50;;;2.50;;
46288;SDS011;63105;46.158;14.604;2022-09-24T03:51:24;4.03;;;2.50;;
46288;SDS011;63105;46.158;14.604;2022-09-24T03:53:49;4.93;;;2.60;;
46288;SDS011;63105;46.158;14.604;2022-09-24T03:56:15;3.80;;;2.47;;
46288;SDS011;63105;46.158;14.604;2022-09-24T03:58:40;4.57;;;2.70;;
46288;SDS011;63105;46.158;14.604;2022-09-24T04:01:06;6.88;;;2.60;;
46288;SDS011;63105;46.158;14.604;2022-09-24T04:03:32;4.97;;;2.65;;
46288;SDS011;63105;46.158;14.604;2022-09-24T04:05:58;4.63;;;2.60;;
46288;SDS011;63105;46.158;14.604;2022-09-24T04:08:23;4.95;;;2.58;;
46288;SDS011;63105;46.158;14.604;2022-09-24T04:10:48;5.55;;;2.40;;
46288;SDS011;63105;46.158;14.604;2022-09-24T04:13:14;6.22;;;2.65;;
46288;SDS011;63105;46.158;14.604;2022-09-24T04:15:40;4.18;;;2.42;;
46288;SDS011;63105;46.158;14.604;2022-09-24T04:18:05;5.35;;;2.75;;
46288;SDS011;63105;46.158;14.604;2022-09-24T04:20:30;4.68;;;2.25;;
46288;SDS011;63105;46.158;14.604;2022-09-24T04:22:57;6.10;;;2.90;;
46288;SDS011;63105;46.158;14.604;2022-09-24T04:25:23;4.20;;;2.65;;
46288;SDS011;63105;46.158;14.604;2022-09-24T04:28:01;5.32;;;2.75;;
46288;SDS011;63105;46.158;14.604;2022-09-24T04:30:27;5.82;;;2.30;;
46288;SDS011;63105;46.158;14.604;2022-09-24T04:32:53;4.32;;;2.53;;
46288;SDS011;63105;46.158;14.604;2022-09-24T04:35:22;4.10;;;2.60;;
46288;SDS011;63105;46.158;14.604;2022-09-24T04:37:47;4.70;;;2.53;;
46288;SDS011;63105;46.158;14.604;2022-09-24T04:40:13;4.75;;;2.60;;
46288;SDS011;63105;46.158;14.604;2022-09-24T04:42:39;5.50;;;2.50;;
46288;SDS011;63105;46.158;14.604;2022-09-24T04:45:08;4.60;;;2.60;;
46288;SDS011;63105;46.158;14.604;2022-09-24T04:47:34;5.68;;;2.33;;
46288;SDS011;63105;46.158;14.604;2022-09-24T04:49:59;3.95;;;2.20;;
46288;SDS011;63105;46.158;14.604;2022-09-24T04:52:26;4.13;;;2.60;;
46288;SDS011;63105;46.158;14.604;2022-09-24T04:54:53;5.82;;;2.60;;
46288;SDS011;63105;46.158;14.604;2022-09-24T04:57:19;3.80;;;2.40;;
46288;SDS011;63105;46.158;14.604;2022-09-24T04:59:44;6.83;;;2.90;;
46288;SDS011;63105;46.158;14.604;2022-09-24T05:02:09;5.28;;;2.78;;
46288;SDS011;63105;46.158;14.604;2022-09-24T05:04:37;5.67;;;2.33;;
46288;SDS011;63105;46.158;14.604;2022-09-24T05:07:03;4.07;;;2.15;;
46288;SDS011;63105;46.158;14.604;2022-09-24T05:09:28;4.47;;;2.70;;
46288;SDS011;63105;46.158;14.604;2022-09-24T05:11:59;5.45;;;2.50;;
46288;SDS011;63105;46.158;14.604;2022-09-24T05:14:24;5.18;;;2.97;;
46288;SDS011;63105;46.158;14.604;2022-09-24T05:16:49;4.18;;;2.60;;
46288;SDS011;63105;46.158;14.604;2022-09-24T05:19:15;5.93;;;2.83;;
46288;SDS011;63105;46.158;14.604;2022-09-24T05:21:40;6.47;;;2.80;;
46288;SDS011;63105;46.158;14.604;2022-09-24T05:24:05;4.63;;;2.60;;
46288;SDS011;63105;46.158;14.604;2022-09-24T05:26:30;7.03;;;2.88;;
46288;SDS011;63105;46.158;14.604;2022-09-24T05:29:14;4.80;;;2.80;;
46288;SDS011;63105;46.158;14.604;2022-09-24T05:31:39;5.10;;;2.72;;
46288;SDS011;63105;46.158;14.604;2022-09-24T05:34:04;5.60;;;2.70;;
46288;SDS011;63105;46.158;14.604;2022-09-24T05:36:30;5.50;;;3.20;;
46288;SDS011;63105;46.158;14.604;2022-09-24T05:38:55;6.07;;;3.23;;
46288;SDS011;63105;46.158;14.604;2022-09-24T05:41:20;7.13;;;3.28;;
46288;SDS011;63105;46.158;14.604;2022-09-24T05:43:46;7.07;;;3.72;;
46288;SDS011;63105;46.158;14.604;2022-09-24T05:46:11;6.72;;;3.70;;
46288;SDS011;63105;46.158;14.604;2022-09-24T05:48:37;7.43;;;3.63;;
46288;SDS011;63105;46.158;14.604;2022-09-24T05:51:02;6.80;;;3.63;;
46288;SDS011;63105;46.158;14.604;2022-09-24T05:53:27;6.40;;;4.18;;
46288;SDS011;63105;46.158;14.604;2022-09-24T05:55:53;6.90;;;3.83;;
46288;SDS011;63105;46.158;14.604;2022-09-24T05:58:18;7.77;;;3.80;;
46288;SDS011;63105;46.158;14.604;2022-09-24T06:00:44;6.05;;;3.80;;
46288;SDS011;63105;46.158;14.604;2022-09-24T06:03:13;6.43;;;3.78;;
46288;SDS011;63105;46.158;14.604;2022-09-24T06:05:42;5.60;;;3.63;;
46288;SDS011;63105;46.158;14.604;2022-09-24T06:08:08;5.50;;;3.60;;
46288;SDS011;63105;46.158;14.604;2022-09-24T06:10:34;5.20;;;3.50;;
46288;SDS011;63105;46.158;14.604;2022-09-24T06:13:00;6.47;;;3.63;;
46288;SDS011;63105;46.158;14.604;2022-09-24T06:15:25;5.93;;;3.60;;
46288;SDS011;63105;46.158;14.604;2022-09-24T06:17:54;7.65;;;3.78;;
46288;SDS011;63105;46.158;14.604;2022-09-24T06:20:19;7.90;;;4.22;;
46288;SDS011;63105;46.158;14.604;2022-09-24T06:22:45;5.53;;;3.80;;
46288;SDS011;63105;46.158;14.604;2022-09-24T06:25:10;5.53;;;3.47;;
46288;SDS011;63105;46.158;14.604;2022-09-24T06:27:35;6.43;;;3.75;;
46288;SDS011;63105;46.158;14.604;2022-09-24T06:30:01;7.38;;;3.65;;
46288;SDS011;63105;46.158;14.604;2022-09-24T06:32:26;5.90;;;3.45;;
46288;SDS011;63105;46.158;14.604;2022-09-24T06:34:51;9.23;;;6.75;;
46288;SDS011;63105;46.158;14.604;2022-09-24T06:37:16;6.47;;;4.10;;
46288;SDS011;63105;46.158;14.604;2022-09-24T06:39:42;6.53;;;4.80;;
46288;SDS011;63105;46.158;14.604;2022-09-24T06:42:07;6.18;;;4.50;;
46288;SDS011;63105;46.158;14.604;2022-09-24T06:44:33;6.30;;;4.40;;
46288;SDS011;63105;46.158;14.604;2022-09-24T06:46:58;5.70;;;4.30;;
46288;SDS011;63105;46.158;14.604;2022-09-24T06:49:24;7.00;;;4.20;;
46288;SDS011;63105;46.158;14.604;2022-09-24T06:51:49;6.13;;;4.20;;
46288;SDS011;63105;46.158;14.604;2022-09-24T06:54:17;6.03;;;3.80;;
46288;SDS011;63105;46.158;14.604;2022-09-24T06:56:42;6.37;;;4.40;;
46288;SDS011;63105;46.158;14.604;2022-09-24T06:59:07;5.93;;;3.87;;
46288;SDS011;63105;46.158;14.604;2022-09-24T07:01:33;6.82;;;4.15;;
46288;SDS011;63105;46.158;14.604;2022-09-24T07:03:58;6.60;;;3.95;;
46288;SDS011;63105;46.158;14.604;2022-09-24T07:06:23;5.38;;;3.63;;
46288;SDS011;63105;46.158;14.604;2022-09-24T07:08:49;6.35;;;3.63;;
46288;SDS011;63105;46.158;14.604;2022-09-24T07:11:14;8.30;;;3.92;;
46288;SDS011;63105;46.158;14.604;2022-09-24T07:13:39;5.07;;;3.60;;
46288;SDS011;63105;46.158;14.604;2022-09-24T07:16:05;5.32;;;3.60;;
46288;SDS011;63105;46.158;14.604;2022-09-24T07:18:30;5.03;;;3.42;;
46288;SDS011;63105;46.158;14.604;2022-09-24T07:20:55;5.97;;;3.70;;
46288;SDS011;63105;46.158;14.604;2022-09-24T07:23:21;6.65;;;3.58;;
46288;SDS011;63105;46.158;14.604;2022-09-24T07:25:46;5.85;;;4.00;;
46288;SDS011;63105;46.158;14.604;2022-09-24T07:28:11;6.65;;;4.68;;
46288;SDS011;63105;46.158;14.604;2022-09-24T07:30:37;7.75;;;4.15;;
46288;SDS011;63105;46.158;14.604;2022-09-24T07:33:03;5.20;;;3.67;;
46288;SDS011;63105;46.158;14.604;2022-09-24T07:35:28;6.65;;;4.30;;
46288;SDS011;63105;46.158;14.604;2022-09-24T07:37:57;9.45;;;4.60;;
46288;SDS011;63105;46.158;14.604;2022-09-24T07:40:23;6.10;;;3.50;;
46288;SDS011;63105;46.158;14.604;2022-09-24T07:42:48;6.32;;;3.72;;
46288;SDS011;63105;46.158;14.604;2022-09-24T07:45:14;7.05;;;3.80;;
46288;SDS011;63105;46.158;14.604;2022-09-24T07:47:41;4.88;;;3.28;;
46288;SDS011;63105;46.158;14.604;2022-09-24T07:50:06;5.60;;;3.47;;
46288;SDS011;63105;46.158;14.604;2022-09-24T07:52:31;9.48;;;4.05;;
46288;SDS011;63105;46.158;14.604;2022-09-24T07:54:57;10.30;;;4.37;;
46288;SDS011;63105;46.158;14.604;2022-09-24T07:57:22;8.83;;;4.43;;
46288;SDS011;63105;46.158;14.604;2022-09-24T07:59:47;7.93;;;4.50;;
46288;SDS011;63105;46.158;14.604;2022-09-24T08:02:15;5.22;;;3.13;;
46288;SDS011;63105;46.158;14.604;2022-09-24T08:04:41;8.32;;;3.40;;
46288;SDS011;63105;46.158;14.604;2022-09-24T08:07:06;5.47;;;3.45;;
46288;SDS011;63105;46.158;14.604;2022-09-24T08:09:31;5.47;;;3.28;;
46288;SDS011;63105;46.158;14.604;2022-09-24T08:11:57;6.22;;;3.47;;
46288;SDS011;63105;46.158;14.604;2022-09-24T08:14:22;5.65;;;2.88;;
46288;SDS011;63105;46.158;14.604;2022-09-24T08:16:48;8.75;;;3.75;;
46288;SDS011;63105;46.158;14.604;2022-09-24T08:19:13;7.77;;;4.10;;
46288;SDS011;63105;46.158;14.604;2022-09-24T08:21:38;6.30;;;3.38;;
46288;SDS011;63105;46.158;14.604;2022-09-24T08:24:03;5.93;;;3.33;;
46288;SDS011;63105;46.158;14.604;2022-09-24T08:26:28;7.32;;;4.43;;
46288;SDS011;63105;46.158;14.604;2022-09-24T08:28:54;6.07;;;3.73;;
46288;SDS011;63105;46.158;14.604;2022-09-24T08:31:19;5.07;;;2.97;;
46288;SDS011;63105;46.158;14.604;2022-09-24T08:33:44;7.47;;;3.50;;
46288;SDS011;63105;46.158;14.604;2022-09-24T08:36:10;5.40;;;4.00;;
46288;SDS011;63105;46.158;14.604;2022-09-24T08:38:35;5.32;;;3.95;;
46288;SDS011;63105;46.158;14.604;2022-09-24T08:41:06;5.63;;;3.22;;
46288;SDS011;63105;46.158;14.604;2022-09-24T08:46:11;6.57;;;3.70;;
46288;SDS011;63105;46.158;14.604;2022-09-24T08:48:57;4.43;;;2.88;;
46288;SDS011;63105;46.158;14.604;2022-09-24T08:51:23;8.27;;;4.25;;
46288;SDS011;63105;46.158;14.604;2022-09-24T08:53:54;7.07;;;4.10;;
46288;SDS011;63105;46.158;14.604;2022-09-24T08:56:25;6.78;;;4.10;;
46288;SDS011;63105;46.158;14.604;2022-09-24T08:58:58;4.72;;;2.92;;
46288;SDS011;63105;46.158;14.604;2022-09-24T09:01:32;7.60;;;4.13;;
46288;SDS011;63105;46.158;14.604;2022-09-24T09:09:15;5.63;;;3.50;;
46288;SDS011;63105;46.158;14.604;2022-09-24T09:11:49;4.20;;;2.58;;
46288;SDS011;63105;46.158;14.604;2022-09-24T09:14:19;10.10;;;4.93;;
46288;SDS011;63105;46.158;14.604;2022-09-24T09:16:48;5.30;;;2.78;;
46288;SDS011;63105;46.158;14.604;2022-09-24T09:19:14;5.05;;;3.25;;
46288;SDS011;63105;46.158;14.604;2022-09-24T09:21:41;5.03;;;3.15;;
46288;SDS011;63105;46.158;14.604;2022-09-24T09:24:26;5.32;;;3.05;;
46288;SDS011;63105;46.158;14.604;2022-09-24T09:26:55;5.30;;;3.15;;
46288;SDS011;63105;46.158;14.604;2022-09-24T09:29:23;5.40;;;3.40;;
46288;SDS011;63105;46.158;14.604;2022-09-24T09:32:04;4.80;;;2.80;;
46288;SDS011;63105;46.158;14.604;2022-09-24T09:35:17;5.38;;;3.20;;
46288;SDS011;63105;46.158;14.604;2022-09-24T09:37:25;11.20;;;6.20;;
46288;SDS011;63105;46.158;14.604;2022-09-24T09:42:36;5.70;;;3.33;;
46288;SDS011;63105;46.158;14.604;2022-09-24T09:45:12;5.55;;;3.40;;
46288;SDS011;63105;46.158;14.604;2022-09-24T09:47:42;8.70;;;4.65;;
46288;SDS011;63105;46.158;14.604;2022-09-24T09:52:36;10.50;;;5.93;;
46288;SDS011;63105;46.158;14.604;2022-09-24T09:55:03;8.40;;;5.22;;
46288;SDS011;63105;46.158;14.604;2022-09-24T09:57:30;7.63;;;4.63;;
46288;SDS011;63105;46.158;14.604;2022-09-24T09:59:56;9.88;;;5.10;;
46288;SDS011;63105;46.158;14.604;2022-09-24T10:02:26;9.07;;;5.10;;
46288;SDS011;63105;46.158;14.604;2022-09-24T10:04:53;10.63;;;5.45;;
46288;SDS011;63105;46.158;14.604;2022-09-24T10:07:19;8.73;;;4.60;;
46288;SDS011;63105;46.158;14.604;2022-09-24T10:09:45;8.60;;;4.17;;
46288;SDS011;63105;46.158;14.604;2022-09-24T10:14:36;8.90;;;4.93;;
46288;SDS011;63105;46.158;14.604;2022-09-24T10:17:01;10.55;;;5.03;;
46288;SDS011;63105;46.158;14.604;2022-09-24T10:19:29;8.82;;;6.00;;
46288;SDS011;63105;46.158;14.604;2022-09-24T10:21:55;8.90;;;5.07;;
46288;SDS011;63105;46.158;14.604;2022-09-24T10:24:24;10.18;;;6.00;;
46288;SDS011;63105;46.158;14.604;2022-09-24T10:26:50;8.27;;;4.97;;
46288;SDS011;63105;46.158;14.604;2022-09-24T10:29:23;6.35;;;4.30;;
46288;SDS011;63105;46.158;14.604;2022-09-24T10:32:15;8.00;;;5.32;;
46288;SDS011;63105;46.158;14.604;2022-09-24T10:34:41;6.95;;;4.60;;
46288;SDS011;63105;46.158;14.604;2022-09-24T10:37:13;6.37;;;4.20;;
46288;SDS011;63105;46.158;14.604;2022-09-24T10:39:42;7.82;;;4.38;;
46288;SDS011;63105;46.158;14.604;2022-09-24T10:42:21;9.98;;;5.72;;
46288;SDS011;63105;46.158;14.604;2022-09-24T10:44:46;10.55;;;5.38;;
46288;SDS011;63105;46.158;14.604;2022-09-24T10:47:14;8.88;;;5.20;;
46288;SDS011;63105;46.158;14.604;2022-09-24T10:57:08;8.40;;;4.55;;
46288;SDS011;63105;46.158;14.604;2022-09-24T11:04:36;8.85;;;5.05;;
46288;SDS011;63105;46.158;14.604;2022-09-24T11:07:17;9.20;;;3.72;;
46288;SDS011;63105;46.158;14.604;2022-09-24T11:10:33;6.93;;;3.80;;
46288;SDS011;63105;46.158;14.604;2022-09-24T11:20:35;6.18;;;3.45;;
46288;SDS011;63105;46.158;14.604;2022-09-24T11:46:18;7.95;;;2.92;;
46288;SDS011;63105;46.158;14.604;2022-09-24T11:56:21;7.27;;;3.30;;
46288;SDS011;63105;46.158;14.604;2022-09-24T11:58:59;5.35;;;2.67;;
46288;SDS011;63105;46.158;14.604;2022-09-24T12:01:33;6.65;;;3.30;;
46288;SDS011;63105;46.158;14.604;2022-09-24T12:05:02;7.03;;;3.20;;
46288;SDS011;63105;46.158;14.604;2022-09-24T12:06:57;5.38;;;2.70;;
46288;SDS011;63105;46.158;14.604;2022-09-24T12:17:05;7.37;;;4.23;;
46288;SDS011;63105;46.158;14.604;2022-09-24T12:22:15;8.50;;;4.57;;
46288;SDS011;63105;46.158;14.604;2022-09-24T12:24:42;8.13;;;4.10;;
46288;SDS011;63105;46.158;14.604;2022-09-24T12:27:12;7.45;;;3.30;;
46288;SDS011;63105;46.158;14.604;2022-09-24T12:41:19;6.70;;;3.50;;
46288;SDS011;63105;46.158;14.604;2022-09-24T12:43:27;8.77;;;4.03;;
46288;SDS011;63105;46.158;14.604;2022-09-24T12:45:57;6.38;;;3.03;;
46288;SDS011;63105;46.158;14.604;2022-09-24T12:48:23;8.50;;;4.75;;
46288;SDS011;63105;46.158;14.604;2022-09-24T12:50:57;7.20;;;4.43;;
46288;SDS011;63105;46.158;14.604;2022-09-24T12:53:23;6.43;;;3.60;;
46288;SDS011;63105;46.158;14.604;2022-09-24T12:55:51;5.72;;;3.50;;
46288;SDS011;63105;46.158;14.604;2022-09-24T13:00:50;9.50;;;5.10;;
46288;SDS011;63105;46.158;14.604;2022-09-24T13:03:59;8.52;;;4.60;;
46288;SDS011;63105;46.158;14.604;2022-09-24T13:06:19;13.43;;;5.50;;
46288;SDS011;63105;46.158;14.604;2022-09-24T13:08:45;8.52;;;4.55;;
46288;SDS011;63105;46.158;14.604;2022-09-24T13:11:30;11.57;;;5.53;;
46288;SDS011;63105;46.158;14.604;2022-09-24T13:16:37;7.97;;;3.40;;
46288;SDS011;63105;46.158;14.604;2022-09-24T13:19:03;9.50;;;3.50;;
46288;SDS011;63105;46.158;14.604;2022-09-24T13:21:30;4.82;;;2.72;;
46288;SDS011;63105;46.158;14.604;2022-09-24T13:23:56;7.38;;;2.85;;
46288;SDS011;63105;46.158;14.604;2022-09-24T13:26:31;5.25;;;2.58;;
46288;SDS011;63105;46.158;14.604;2022-09-24T13:29:00;5.80;;;2.70;;
46288;SDS011;63105;46.158;14.604;2022-09-24T13:33:52;13.77;;;7.37;;
46288;SDS011;63105;46.158;14.604;2022-09-24T13:36:24;13.07;;;8.55;;
46288;SDS011;63105;46.158;14.604;2022-09-24T13:41:29;8.80;;;4.87;;
46288;SDS011;63105;46.158;14.604;2022-09-24T13:46:22;6.28;;;2.80;;
46288;SDS011;63105;46.158;14.604;2022-09-24T13:48:52;5.70;;;2.90;;
46288;SDS011;63105;46.158;14.604;2022-09-24T13:51:20;4.40;;;2.78;;
46288;SDS011;63105;46.158;14.604;2022-09-24T13:53:48;7.13;;;2.47;;
46288;SDS011;63105;46.158;14.604;2022-09-24T13:56:15;6.03;;;3.00;;
46288;SDS011;63105;46.158;14.604;2022-09-24T13:58:41;5.65;;;2.88;;
46288;SDS011;63105;46.158;14.604;2022-09-24T14:01:11;7.57;;;3.30;;
46288;SDS011;63105;46.158;14.604;2022-09-24T14:03:39;5.60;;;3.05;;
46288;SDS011;63105;46.158;14.604;2022-09-24T14:06:09;5.60;;;2.92;;
46288;SDS011;63105;46.158;14.604;2022-09-24T14:08:35;5.50;;;2.90;;
46288;SDS011;63105;46.158;14.604;2022-09-24T14:13:44;5.50;;;2.97;;
46288;SDS011;63105;46.158;14.604;2022-09-24T14:16:19;5.60;;;3.08;;
46288;SDS011;63105;46.158;14.604;2022-09-24T14:18:45;5.00;;;2.45;;
46288;SDS011;63105;46.158;14.604;2022-09-24T14:23:40;7.15;;;3.80;;
46288;SDS011;63105;46.158;14.604;2022-09-24T14:26:07;9.65;;;5.10;;
46288;SDS011;63105;46.158;14.604;2022-09-24T14:28:36;7.47;;;3.95;;
46288;SDS011;63105;46.158;14.604;2022-09-24T14:31:01;5.95;;;3.47;;
46288;SDS011;63105;46.158;14.604;2022-09-24T14:33:31;5.63;;;3.20;;
46288;SDS011;63105;46.158;14.604;2022-09-24T14:35:57;4.63;;;2.47;;
46288;SDS011;63105;46.158;14.604;2022-09-24T14:38:25;7.93;;;3.15;;
46288;SDS011;63105;46.158;14.604;2022-09-24T14:40:52;7.03;;;3.75;;
46288;SDS011;63105;46.158;14.604;2022-09-24T14:45:58;7.35;;;3.17;;
46288;SDS011;63105;46.158;14.604;2022-09-24T14:48:28;6.40;;;3.15;;
46288;SDS011;63105;46.158;14.604;2022-09-24T14:50:54;6.63;;;3.78;;
46288;SDS011;63105;46.158;14.604;2022-09-24T14:53:21;7.15;;;3.85;;
46288;SDS011;63105;46.158;14.604;2022-09-24T14:55:47;8.00;;;3.28;;
46288;SDS011;63105;46.158;14.604;2022-09-24T15:00:58;6.70;;;3.45;;
46288;SDS011;63105;46.158;14.604;2022-09-24T15:03:33;6.28;;;3.88;;
46288;SDS011;63105;46.158;14.604;2022-09-24T15:06:03;9.38;;;4.65;;
46288;SDS011;63105;46.158;14.604;2022-09-24T15:08:28;8.55;;;4.72;;
46288;SDS011;63105;46.158;14.604;2022-09-24T15:10:54;10.98;;;6.07;;
46288;SDS011;63105;46.158;14.604;2022-09-24T15:13:23;8.80;;;5.50;;
46288;SDS011;63105;46.158;14.604;2022-09-24T15:16:00;9.88;;;5.88;;
46288;SDS011;63105;46.158;14.604;2022-09-24T15:18:25;17.45;;;6.05;;
46288;SDS011;63105;46.158;14.604;2022-09-24T15:20:50;9.33;;;5.10;;
46288;SDS011;63105;46.158;14.604;2022-09-24T15:23:15;12.47;;;9.40;;
46288;SDS011;63105;46.158;14.604;2022-09-24T15:25:41;12.95;;;8.23;;
46288;SDS011;63105;46.158;14.604;2022-09-24T15:28:10;27.88;;;20.08;;
46288;SDS011;63105;46.158;14.604;2022-09-24T15:30:36;23.20;;;14.90;;
46288;SDS011;63105;46.158;14.604;2022-09-24T15:33:04;12.77;;;7.45;;
46288;SDS011;63105;46.158;14.604;2022-09-24T15:35:34;8.07;;;5.00;;
46288;SDS011;63105;46.158;14.604;2022-09-24T15:37:59;17.23;;;9.23;;
46288;SDS011;63105;46.158;14.604;2022-09-24T15:40:24;202.27;;;31.13;;
46288;SDS011;63105;46.158;14.604;2022-09-24T15:42:54;14.95;;;9.07;;
46288;SDS011;63105;46.158;14.604;2022-09-24T15:45:22;164.55;;;25.25;;
46288;SDS011;63105;46.158;14.604;2022-09-24T15:47:48;59.03;;;12.80;;
46288;SDS011;63105;46.158;14.604;2022-09-24T15:50:14;44.90;;;12.73;;
46288;SDS011;63105;46.158;14.604;2022-09-24T15:52:43;21.98;;;8.20;;
46288;SDS011;63105;46.158;14.604;2022-09-24T15:55:11;29.83;;;8.80;;
46288;SDS011;63105;46.158;14.604;2022-09-24T15:57:37;32.35;;;8.82;;
46288;SDS011;63105;46.158;14.604;2022-09-24T16:00:02;29.83;;;9.43;;
46288;SDS011;63105;46.158;14.604;2022-09-24T16:02:29;29.08;;;9.10;;
46288;SDS011;63105;46.158;14.604;2022-09-24T16:04:57;22.08;;;8.15;;
46288;SDS011;63105;46.158;14.604;2022-09-24T16:07:23;26.85;;;7.90;;
46288;SDS011;63105;46.158;14.604;2022-09-24T16:09:48;24.90;;;8.20;;
46288;SDS011;63105;46.158;14.604;2022-09-24T16:12:14;25.27;;;7.30;;
46288;SDS011;63105;46.158;14.604;2022-09-24T16:14:40;24.85;;;8.48;;
46288;SDS011;63105;46.158;14.604;2022-09-24T16:17:05;31.50;;;8.90;;
46288;SDS011;63105;46.158;14.604;2022-09-24T16:19:30;24.98;;;7.55;;
46288;SDS011;63105;46.158;14.604;2022-09-24T16:21:55;18.80;;;7.17;;
46288;SDS011;63105;46.158;14.604;2022-09-24T16:24:20;23.33;;;8.60;;
46288;SDS011;63105;46.158;14.604;2022-09-24T16:26:46;21.00;;;7.45;;
46288;SDS011;63105;46.158;14.604;2022-09-24T16:29:11;16.33;;;7.63;;
46288;SDS011;63105;46.158;14.604;2022-09-24T16:31:36;22.83;;;12.98;;
46288;SDS011;63105;46.158;14.604;2022-09-24T16:34:02;18.13;;;7.38;;
46288;SDS011;63105;46.158;14.604;2022-09-24T16:36:27;45.90;;;10.85;;
46288;SDS011;63105;46.158;14.604;2022-09-24T16:38:52;21.43;;;7.40;;
46288;SDS011;63105;46.158;14.604;2022-09-24T16:41:17;18.20;;;7.50;;
46288;SDS011;63105;46.158;14.604;2022-09-24T16:43:42;19.70;;;7.50;;
46288;SDS011;63105;46.158;14.604;2022-09-24T16:46:08;17.97;;;7.80;;
46288;SDS011;63105;46.158;14.604;2022-09-24T16:48:34;17.23;;;8.13;;